• Join FlightAware (Why Join?)
  • Login
  • US Flag 
08:28AM EDT


 

Airport Tracker/Info


-or-


 

Live Flight TrackerFlight Track Log ✈ UAL1137 ✈ 25-Apr-2012 ✈ KIAH - KMSY

Flight Track Log - Related Links

Times and Time Zones

All times are in EDT time to prevent confusion due to time zone crossing. See the UAL1137 flight status page for this flight to view local times or setup timezone preferences in your user account.

Time Position Orientation Groundspeed Altitude Reporting Facility
EDT Latitude Longitude Course Direction KTS MPH feet Rate Location/Type
02:29PM 29.9564 -95.3384 143° Southeast 174 200 800  Level FlightAware ADS-B
02:29PM 29.9524 -95.3349 134° Southeast 172 198 1,100 2,400 Climbing FlightAware ADS-B
02:29PM 29.9480 -95.3296 131° Southeast 175 201 1,400 1,740 Climbing FlightAware ADS-B
02:29PM 29.9424 -95.3222 131° Southeast 194 223 1,600 1,260 Climbing FlightAware ADS-B
02:29PM 29.9397 -95.3186 130° Southeast 203 234 1,700 1,320 Climbing FlightAware ADS-B
02:30PM 29.9311 -95.3069 131° Southeast 217 250 2,000 1,560 Climbing FlightAware ADS-B
02:30PM 29.9282 -95.3030 130° Southeast 220 253 2,200 3,300 Climbing FlightAware ADS-B
02:30PM 29.9243 -95.2976 129° Southeast 222 255 2,500 3,300 Climbing FlightAware ADS-B
02:30PM 29.9217 -95.2939 129° Southeast 224 258 2,700 2,820 Climbing FlightAware ADS-B
02:30PM 29.9117 -95.2797 130° Southeast 227 261 3,500 2,400 Climbing FlightAware ADS-B
02:30PM 29.9006 -95.2643 129° Southeast 244 281 3,900 1,020 Climbing FlightAware ADS-B
02:31PM 29.8899 -95.2488 129° Southeast 257 296 4,000 180 Climbing FlightAware ADS-B
02:31PM 29.8784 -95.2325 128° Southeast 262 302 4,000 360 Level FlightAware ADS-B
02:31PM 29.8664 -95.2150 129° Southeast 268 308 4,200 1,380 Climbing FlightAware ADS-B
02:31PM 29.8557 -95.1995 129° Southeast 271 312 4,700 2,640 Climbing FlightAware ADS-B
02:32PM 29.8434 -95.1823 130° Southeast 273 314 5,500 3,360 Climbing FlightAware ADS-B
02:32PM 29.8312 -95.1657 131° Southeast 270 311 6,400 3,120 Climbing FlightAware ADS-B
02:32PM 29.8250 -95.1574 131° Southeast 272 313 6,700 2,640 Climbing FlightAware ADS-B
02:32PM 29.8108 -95.1386 131° Southeast 276 318 7,500 2,580 Climbing FlightAware ADS-B
02:33PM 29.7975 -95.1211 132° Southeast 285 328 8,100 2,460 Climbing FlightAware ADS-B
02:33PM 29.7836 -95.1034 133° Southeast 290 334 8,800 2,400 Climbing FlightAware ADS-B
02:33PM 29.7746 -95.0923 131° Southeast 295 339 9,100 2,280 Climbing FlightAware ADS-B
02:33PM 29.7714 -95.0880 124° Southeast 297 342 9,300 2,220 Climbing FlightAware ADS-B
02:33PM 29.7682 -95.0825 116° Southeast 298 343 9,400 2,220 Climbing FlightAware ADS-B
02:33PM 29.7661 -95.0776 111° Southeast 298 343 9,600 2,520 Climbing FlightAware ADS-B
02:33PM 29.7644 -95.0724 103° East 298 343 9,700 2,520 Climbing FlightAware ADS-B
02:33PM 29.7633 -95.0670 94° East 298 343 9,900 3,000 Climbing FlightAware ADS-B
02:33PM 29.7627 -95.0565 85° East 297 342 10,200 3,000 Climbing FlightAware ADS-B
02:34PM 29.7631 -95.0511 79° East 298 343 10,400 1,560 Climbing FlightAware ADS-B
02:34PM 29.7662 -95.0332 77° East 308 354 10,600 1,500 Climbing FlightAware ADS-B
02:34PM 29.7742 -94.9940 80° East 326 375 11,300 2,220 Climbing FlightAware ADS-B
02:35PM 29.7824 -94.9418 81° East 333 383 12,600 2,460 Climbing FlightAware ADS-B
02:35PM 29.7895 -94.8879 82° East 343 395 13,800 2,400 Climbing FlightAware ADS-B
02:36PM 29.7965 -94.8323 82° East 351 404 15,000 2,220 Climbing FlightAware ADS-B
02:36PM 29.8038 -94.7749 82° East 364 419 16,100 2,100 Climbing FlightAware ADS-B
02:37PM 29.8115 -94.7149 81° East 374 430 17,200 2,220 Climbing FlightAware ADS-B
02:37PM 29.8193 -94.6555 81° East 379 436 18,400 2,040 Climbing FlightAware ADS-B
02:38PM 29.8275 -94.5928 82° East 393 452 19,300 1,620 Climbing FlightAware ADS-B
02:38PM 29.8359 -94.5276 82° East 407 468 20,100 1,740 Climbing FlightAware ADS-B
02:39PM 29.8443 -94.4615 81° East 415 478 21,100 2,040 Climbing FlightAware ADS-B
02:39PM 29.8529 -94.3953 81° East 419 482 22,200 2,040 Climbing FlightAware ADS-B
02:40PM 29.8591 -94.3474 85° East 421 484 22,900 1,320 Climbing FlightAware ADS-B
02:40PM 29.8615 -94.3169 89° East 424 488 23,000 240 Climbing FlightAware ADS-B
02:40PM 29.8617 -94.2913 92° East 426 490 23,000  Level FlightAware ADS-B
02:40PM 29.8596 -94.2222 92° East 426 490 23,000  Level FlightAware ADS-B
02:41PM 29.8573 -94.1528 88° East 425 489 23,000 540 Level FlightAware ADS-B
02:41PM 29.8587 -94.1081 83° East 425 489 23,500 1,500 Climbing FlightAware ADS-B
02:42PM 29.8659 -94.0353 84° East 432 497 24,300 1,500 Climbing FlightAware ADS-B
02:42PM 29.8726 -93.9646 84° East 437 503 25,100 1,560 Climbing FlightAware ADS-B
02:43PM 29.8872 -93.8036 84° East 441 507 26,900 1,500 Climbing FlightAware ADS-B
02:44PM 29.8948 -93.7195 84° East 452 520 27,700 1,500 Climbing FlightAware ADS-B
02:45PM 29.9029 -93.6291 84° East 453 521 28,700 1,800 Climbing FlightAware ADS-B
02:45PM 29.9110 -93.5391 84° East 447 514 30,000 1,860 Climbing FlightAware ADS-B
02:46PM 29.9175 -93.4674 84° East 441 507 30,900 1,620 Climbing FlightAware ADS-B
02:47PM 29.9262 -93.3695 84° East 439 505 32,000 1,380 Climbing FlightAware ADS-B
02:47PM 29.9324 -93.2992 84° East 438 504 32,600 960 Climbing FlightAware ADS-B
02:48PM 29.9386 -93.2279 84° East 440 506 33,000 360 Climbing FlightAware ADS-B
02:48PM 29.9452 -93.1512 84° East 442 509 33,000  Level FlightAware ADS-B
02:49PM 29.9514 -93.0778 84° East 442 509 33,000  Level FlightAware ADS-B
02:49PM 29.9601 -92.9773 84° East 442 509 33,000  Level FlightAware ADS-B
02:50PM 29.9684 -92.8793 84° East 441 507 33,000  Level FlightAware ADS-B
02:51PM 29.9810 -92.7279 84° East 439 505 33,000  Level FlightAware ADS-B
02:52PM 29.9917 -92.5992 85° East 438 504 33,000  Level FlightAware ADS-B
02:52PM 29.9925 -92.5892 85° East 440 506 33,000 -660 Level Houston Center
02:54PM 30.0151 -92.3108 85° East 434 499 31,700 -1,320 Descending FlightAware ADS-B
02:55PM 30.0248 -92.1867 85° East 433 498 29,500 -2,340 Descending FlightAware ADS-B
02:56PM 30.0305 -92.1134 86° East 424 488 28,400 -1,860 Descending FlightAware ADS-B
02:56PM 30.0347 -92.0400 86° East 430 495 27,200 -1,860 Descending Houston Center
02:57PM 30.0433 -91.9106 84° East 419 482 25,200 -2,100 Descending Houston Center
02:59PM 30.0654 -91.6585 84° East 391 450 21,300 -2,040 Descending FlightAware ADS-B
03:00PM 30.0769 -91.5194 84° East 389 448 19,100 -1,860 Descending Houston Center
03:01PM 30.0872 -91.3994 85° East 384 442 17,300 -1,860 Descending Houston Center
03:02PM 30.0953 -91.2817 88° East 384 442 15,400 -1,980 Descending Houston Center
03:03PM 30.0972 -91.2025 85° East 370 426 14,100 -1,920 Descending Houston Center
03:04PM 30.1050 -91.0969 86° East 361 415 12,400 -1,560 Descending Houston Center
03:05PM 30.1108 -90.9889 109° East 343 395 11,100 -1,200 Descending Houston Center
03:06PM 30.0833 -90.8953 107° East 301 346 10,000 -1,320 Descending Houston Center
03:07PM 30.0619 -90.8164 104° East 289 333 8,600 -1,500 Descending Houston Center
03:07PM 30.0533 -90.7756 114° Southeast 290 334 7,900 -1,380 Descending Houston Center
03:08PM 30.0319 -90.7206 107° East 291 335 7,100 -1,320 Descending Houston Center
03:09PM 30.0106 -90.6417 109° East 287 330 5,900 -1,140 Descending Houston Center
03:10PM 29.9847 -90.5556 109° East 282 325 5,000 -480 Descending Houston Center
03:11PM 29.9592 -90.4719 110° East 274 315 5,000  Level Houston Center
03:12PM 29.9333 -90.3883 110° East 265 305 5,000 -540 Level Houston Center
03:13PM 29.9094 -90.3119 107° East 258 297 4,000 -780 Descending Houston Center
03:14PM 29.8900 -90.2403 109° East 234 269 3,500 -600 Descending Houston Center
03:15PM 29.8706 -90.1736 109° East 229 264 2,900 -600 Descending Houston Center